createdAt,value
2022-09-23T00:01:08.955Z,71.11
2022-09-23T00:03:39.319Z,71.65
2022-09-23T00:06:17.992Z,72.07
2022-09-23T00:08:45.277Z,70.87
2022-09-23T00:11:13.845Z,71.62
2022-09-23T00:13:43.338Z,71.92
2022-09-23T00:16:17.300Z,72.13
2022-09-23T00:18:44.725Z,73.18
2022-09-23T00:21:14.447Z,72.01
2022-09-23T00:23:43.433Z,71.44
2022-09-23T00:26:13.811Z,72.00
2022-09-23T00:28:41.451Z,72.28
2022-09-23T00:31:14.611Z,71.21
2022-09-23T00:33:42.015Z,72.15
2022-09-23T00:36:15.575Z,72.06
2022-09-23T00:38:46.032Z,72.07
2022-09-23T00:41:16.924Z,70.96
2022-09-23T00:43:50.309Z,72.15
2022-09-23T00:46:25.495Z,72.14
2022-09-23T00:49:00.048Z,72.10
2022-09-23T00:51:33.384Z,70.76
2022-09-23T00:54:01.471Z,71.04
2022-09-23T00:56:31.224Z,71.52
2022-09-23T00:59:00.818Z,70.94
2022-09-23T01:01:28.105Z,71.27
2022-09-23T01:03:56.935Z,70.64
2022-09-23T01:06:24.620Z,71.56
2022-09-23T01:08:52.591Z,69.90
2022-09-23T01:11:52.324Z,71.64
2022-09-23T01:15:01.297Z,71.64
2022-09-23T01:17:44.141Z,72.24
2022-09-23T01:20:28.935Z,71.75
2022-09-23T01:23:20.767Z,71.80
2022-09-23T01:26:14.081Z,72.60
2022-09-23T01:28:50.696Z,72.68
2022-09-23T01:31:36.929Z,72.58
2022-09-23T01:34:10.079Z,72.96
2022-09-23T01:36:49.144Z,74.26
2022-09-23T01:39:31.970Z,72.87
2022-09-23T01:42:17.332Z,72.77
2022-09-23T01:44:59.116Z,73.43
2022-09-23T01:47:34.578Z,74.35
2022-09-23T01:50:33.402Z,74.10
2022-09-23T01:53:24.301Z,74.71
2022-09-23T01:55:57.202Z,73.56
2022-09-23T01:58:30.618Z,73.81
2022-09-23T02:01:03.079Z,74.26
2022-09-23T02:03:55.654Z,73.38
2022-09-23T02:06:29.470Z,72.96
2022-09-23T02:09:05.028Z,72.50
2022-09-23T02:11:38.596Z,73.49
2022-09-23T02:14:38.748Z,72.47
2022-09-23T02:17:13.573Z,73.27
2022-09-23T02:19:48.848Z,73.11
2022-09-23T02:22:26.540Z,72.66
2022-09-23T02:24:57.633Z,73.79
2022-09-23T02:27:40.836Z,73.11
2022-09-23T02:30:14.092Z,73.47
2022-09-23T02:32:53.400Z,73.38
2022-09-23T02:35:40.256Z,71.93
2022-09-23T02:38:10.380Z,71.21
2022-09-23T02:40:55.896Z,72.60
2022-09-23T02:43:36.134Z,72.78
2022-09-23T02:46:04.889Z,73.09
2022-09-23T02:48:37.852Z,72.89
2022-09-23T02:51:05.395Z,73.45
2022-09-23T02:53:33.899Z,72.89
2022-09-23T02:56:02.307Z,72.78
2022-09-23T02:58:30.024Z,72.23
2022-09-23T03:01:15.793Z,71.91
2022-09-23T03:03:49.402Z,71.24
2022-09-23T03:06:32.035Z,71.45
2022-09-23T03:09:09.179Z,71.89
2022-09-23T03:11:40.885Z,73.01
2022-09-23T03:14:21.968Z,73.22
2022-09-23T03:16:59.097Z,72.80
2022-09-23T03:19:33.824Z,72.86
2022-09-23T03:22:14.973Z,73.14
2022-09-23T03:24:44.893Z,72.80
2022-09-23T03:27:14.236Z,73.00
2022-09-23T03:29:45.489Z,72.37
2022-09-23T03:32:15.779Z,72.75
2022-09-23T03:34:44.821Z,73.77
2022-09-23T03:37:35.773Z,72.10
2022-09-23T03:40:18.071Z,73.04
2022-09-23T03:42:48.824Z,72.18
2022-09-23T03:45:19.791Z,71.28
2022-09-23T03:47:47.732Z,72.50
2022-09-23T03:50:17.328Z,70.98
2022-09-23T03:52:44.948Z,72.00
2022-09-23T03:55:12.187Z,71.97
2022-09-23T03:57:39.664Z,72.67
2022-09-23T04:00:07.882Z,72.56
2022-09-23T04:02:41.845Z,71.54
2022-09-23T04:05:10.757Z,71.57
2022-09-23T04:07:38.329Z,70.08
2022-09-23T04:10:06.393Z,71.57
2022-09-23T04:12:33.581Z,71.01
2022-09-23T04:15:00.842Z,71.54
2022-09-23T04:17:28.252Z,71.93
2022-09-23T04:19:55.522Z,71.71
2022-09-23T04:22:22.676Z,71.29
2022-09-23T04:24:49.963Z,72.34
2022-09-23T04:27:17.108Z,72.22
2022-09-23T04:29:44.537Z,71.17
2022-09-23T04:32:11.820Z,70.95
2022-09-23T04:34:40.020Z,72.17
2022-09-23T04:37:07.416Z,71.89
2022-09-23T04:39:34.775Z,72.32
2022-09-23T04:42:02.962Z,71.86
2022-09-23T04:44:30.253Z,70.85
2022-09-23T04:46:57.538Z,70.92
2022-09-23T04:49:25.524Z,71.58
2022-09-23T04:51:52.747Z,72.40
2022-09-23T04:54:20.125Z,72.93
2022-09-23T04:56:47.336Z,71.99
2022-09-23T04:59:14.593Z,71.25
2022-09-23T05:01:41.918Z,73.34
2022-09-23T05:04:13.321Z,71.69
2022-09-23T05:06:40.515Z,71.82
2022-09-23T05:09:08.886Z,71.26
2022-09-23T05:11:36.273Z,71.27
2022-09-23T05:14:03.638Z,71.08
2022-09-23T05:16:30.904Z,71.90
2022-09-23T05:18:58.465Z,72.99
2022-09-23T05:21:28.824Z,72.60
2022-09-23T05:23:58.940Z,72.94
2022-09-23T05:26:29.026Z,72.93
2022-09-23T05:28:57.074Z,74.61
2022-09-23T05:31:27.183Z,75.04
2022-09-23T05:34:02.925Z,75.39
2022-09-23T05:36:37.610Z,75.37
2022-09-23T05:39:07.824Z,74.91
2022-09-23T05:41:35.920Z,76.06
2022-09-23T05:44:03.257Z,76.12
2022-09-23T05:46:31.215Z,77.08
2022-09-23T05:49:02.890Z,75.76
2022-09-23T05:51:32.514Z,76.62
2022-09-23T05:54:02.893Z,75.81
2022-09-23T05:56:32.433Z,75.01
2022-09-23T05:59:01.738Z,75.31
2022-09-23T06:01:35.352Z,74.65
2022-09-23T06:04:05.374Z,75.01
2022-09-23T06:06:41.442Z,74.64
2022-09-23T06:09:13.345Z,74.94
2022-09-23T06:11:41.705Z,73.67
2022-09-23T06:14:12.319Z,74.35
2022-09-23T06:16:39.452Z,74.26
2022-09-23T06:19:07.167Z,73.32
2022-09-23T06:21:35.568Z,73.78
2022-09-23T06:24:05.930Z,72.69
2022-09-23T06:26:37.455Z,72.14
2022-09-23T06:29:11.873Z,71.55
2022-09-23T06:31:40.676Z,70.59
2022-09-23T06:34:14.422Z,70.42
2022-09-23T06:36:45.547Z,69.49
2022-09-23T06:39:14.456Z,69.39
2022-09-23T06:41:41.423Z,68.63
2022-09-23T06:44:14.309Z,67.56
2022-09-23T06:46:42.278Z,67.31
2022-09-23T06:49:09.642Z,63.72
2022-09-23T06:51:36.929Z,59.55
2022-09-23T06:54:04.674Z,58.54
2022-09-23T06:56:36.341Z,55.08
2022-09-23T06:59:09.713Z,51.49
2022-09-23T07:01:37.022Z,54.21
2022-09-23T07:04:04.490Z,54.21
2022-09-23T07:06:31.715Z,54.95
2022-09-23T07:08:58.846Z,52.97
2022-09-23T07:11:25.876Z,52.60
2022-09-23T07:13:52.908Z,53.40
2022-09-23T07:16:21.075Z,54.26
2022-09-23T07:18:49.344Z,52.88
2022-09-23T07:21:17.483Z,53.01
2022-09-23T07:23:47.433Z,53.83
2022-09-23T07:26:16.912Z,53.04
2022-09-23T07:28:44.177Z,53.48
2022-09-23T07:31:15.269Z,52.46
2022-09-23T07:33:44.286Z,51.14
2022-09-23T07:36:14.309Z,50.27
2022-09-23T07:38:45.300Z,48.89
2022-09-23T07:41:17.114Z,48.08
2022-09-23T07:43:46.010Z,48.31
2022-09-23T07:46:16.848Z,47.57
2022-09-23T07:48:45.802Z,48.26
2022-09-23T07:51:18.361Z,49.13
2022-09-23T07:53:51.181Z,47.55
2022-09-23T07:56:19.896Z,48.91
2022-09-23T07:58:59.829Z,47.71
2022-09-23T08:01:35.072Z,50.29
2022-09-23T08:04:05.495Z,49.07
2022-09-23T08:06:33.616Z,49.29
2022-09-23T08:09:01.691Z,48.78
2022-09-23T08:11:29.024Z,48.48
2022-09-23T08:13:57.375Z,49.04
2022-09-23T08:16:24.743Z,47.99
2022-09-23T08:18:52.130Z,46.03
2022-09-23T08:21:21.248Z,44.42
2022-09-23T08:23:48.944Z,43.92
2022-09-23T08:26:21.624Z,41.67
2022-09-23T08:28:50.527Z,43.33
2022-09-23T08:31:17.793Z,43.53
2022-09-23T08:33:45.427Z,43.07
2022-09-23T08:36:12.691Z,40.89
2022-09-23T08:38:39.967Z,41.60
2022-09-23T08:41:21.455Z,42.81
2022-09-23T08:43:54.281Z,43.71
2022-09-23T08:46:33.626Z,42.68
2022-09-23T08:49:01.992Z,41.79
2022-09-23T08:51:35.887Z,41.89
2022-09-23T08:54:04.548Z,41.12
2022-09-23T08:56:46.505Z,41.46
2022-09-23T08:59:41.997Z,39.51
2022-09-23T09:02:28.376Z,40.04
2022-09-23T09:05:03.275Z,40.33
2022-09-23T09:07:40.240Z,38.97
2022-09-23T09:10:15.572Z,38.97
2022-09-23T09:13:07.464Z,40.26
2022-09-23T09:15:45.712Z,38.23
2022-09-23T09:18:21.672Z,39.32
2022-09-23T09:20:57.334Z,39.21
2022-09-23T09:23:30.997Z,38.45
2022-09-23T09:26:01.615Z,38.31
2022-09-23T09:28:33.882Z,39.14
2022-09-23T09:31:05.715Z,38.95
2022-09-23T09:34:05.537Z,37.94
2022-09-23T09:36:57.838Z,38.68
2022-09-23T09:39:26.438Z,39.44
2022-09-23T09:41:59.651Z,39.94
2022-09-23T09:44:45.743Z,39.88
2022-09-23T09:47:34.946Z,38.31
2022-09-23T09:50:08.143Z,40.26
2022-09-23T09:52:39.851Z,39.19
2022-09-23T09:55:13.056Z,39.37
2022-09-23T09:57:45.514Z,40.03
2022-09-23T10:00:22.003Z,41.17
2022-09-23T10:02:54.994Z,42.39
2022-09-23T10:05:33.044Z,41.70
2022-09-23T10:08:34.938Z,41.11
2022-09-23T10:11:17.036Z,42.20
2022-09-23T10:14:10.779Z,40.21
2022-09-23T10:16:40.020Z,38.96
2022-09-23T10:19:17.157Z,38.41
2022-09-23T10:21:58.805Z,37.66
2022-09-23T10:24:32.141Z,38.44
2022-09-23T10:27:12.014Z,37.10
2022-09-23T10:29:48.592Z,36.97
2022-09-23T10:32:22.040Z,37.86
2022-09-23T10:35:04.589Z,37.62
2022-09-23T10:37:42.178Z,37.01
2022-09-23T10:40:40.896Z,37.12
2022-09-23T10:43:38.859Z,38.06
2022-09-23T10:46:29.462Z,39.24
2022-09-23T10:48:59.789Z,39.18
2022-09-23T10:51:40.836Z,38.14
2022-09-23T10:54:46.281Z,38.12
2022-09-23T10:57:42.772Z,37.74
2022-09-23T11:00:17.500Z,36.68
2022-09-23T11:02:59.635Z,37.08
2022-09-23T11:05:55.288Z,38.38
2022-09-23T11:08:35.122Z,38.99
2022-09-23T11:11:21.768Z,36.99
2022-09-23T11:13:54.580Z,37.94
2022-09-23T11:16:32.454Z,39.20
2022-09-23T11:19:13.428Z,38.23
2022-09-23T11:21:52.941Z,38.90
2022-09-23T11:24:32.846Z,37.50
2022-09-23T11:27:26.555Z,37.97
2022-09-23T11:30:14.387Z,36.92
2022-09-23T11:33:05.336Z,36.93
2022-09-23T11:36:05.059Z,37.56
2022-09-23T11:38:43.485Z,38.44
2022-09-23T11:41:25.834Z,37.27
2022-09-23T11:44:08.075Z,37.57
2022-09-23T11:46:45.904Z,37.94
2022-09-23T11:49:31.800Z,37.04
2022-09-23T11:52:05.208Z,36.30
2022-09-23T11:55:17.072Z,37.21
2022-09-23T11:57:51.571Z,36.33
2022-09-23T12:00:22.147Z,36.68
2022-09-23T12:03:05.529Z,36.87
2022-09-23T12:06:12.299Z,37.20
2022-09-23T12:08:39.674Z,36.90
2022-09-23T12:11:34.872Z,38.53
2022-09-23T12:14:15.995Z,38.50
2022-09-23T12:17:07.522Z,37.57
2022-09-23T12:20:09.262Z,35.94
2022-09-23T12:22:47.958Z,37.06
2022-09-23T12:25:27.500Z,36.52
2022-09-23T12:28:01.582Z,36.32
2022-09-23T12:30:32.741Z,36.65
2022-09-23T12:33:18.374Z,36.81
2022-09-23T12:35:46.161Z,36.87
2022-09-23T12:38:20.142Z,35.53
2022-09-23T12:40:48.281Z,36.47
2022-09-23T12:43:35.470Z,36.31
2022-09-23T12:46:18.240Z,36.35
2022-09-23T12:48:57.906Z,36.01
2022-09-23T12:51:31.569Z,36.28
2022-09-23T12:54:04.810Z,36.52
2022-09-23T12:56:33.135Z,35.59
2022-09-23T12:59:05.584Z,36.02
2022-09-23T13:01:37.846Z,37.05
2022-09-23T13:04:24.973Z,36.15
2022-09-23T13:07:06.343Z,35.21
2022-09-23T13:09:46.952Z,35.81
2022-09-23T13:12:23.248Z,35.26
2022-09-23T13:14:54.770Z,36.17
2022-09-23T13:17:35.916Z,36.10
2022-09-23T13:20:33.437Z,35.89
2022-09-23T13:23:17.802Z,35.10
2022-09-23T13:25:46.689Z,35.55
2022-09-23T13:28:27.750Z,34.73
2022-09-23T13:30:56.557Z,35.13
2022-09-23T13:33:28.469Z,36.85
2022-09-23T13:36:02.363Z,35.27
2022-09-23T13:38:32.264Z,35.48
2022-09-23T13:41:05.158Z,35.42
2022-09-23T13:43:44.909Z,34.75
2022-09-23T13:46:25.257Z,34.71
2022-09-23T13:48:55.976Z,35.76
2022-09-23T13:51:30.909Z,36.00
2022-09-23T13:54:01.501Z,35.53
2022-09-23T13:56:31.725Z,35.22
2022-09-23T13:59:26.958Z,34.16
2022-09-23T14:02:17.730Z,35.39
2022-09-23T14:04:46.469Z,35.85
2022-09-23T14:07:19.584Z,36.01
2022-09-23T14:09:52.317Z,35.53
2022-09-23T14:12:22.533Z,36.91
2022-09-23T14:14:57.164Z,37.13
2022-09-23T14:17:24.446Z,36.75
2022-09-23T14:19:52.030Z,35.28
2022-09-23T14:22:28.918Z,35.51
2022-09-23T14:24:58.412Z,36.22
2022-09-23T14:27:33.768Z,36.12
2022-09-23T14:30:06.715Z,36.68
2022-09-23T14:32:35.599Z,36.59
2022-09-23T14:35:05.516Z,36.86
2022-09-23T14:38:05.941Z,36.00
2022-09-23T14:40:36.795Z,36.92
2022-09-23T14:43:05.228Z,37.14
2022-09-23T14:45:37.180Z,37.26
2022-09-23T14:48:17.600Z,36.22
2022-09-23T14:50:57.581Z,36.08
2022-09-23T14:53:40.785Z,36.13
2022-09-23T14:56:22.496Z,36.35
2022-09-23T14:59:00.540Z,36.94
2022-09-23T15:01:31.255Z,37.24
2022-09-23T15:04:18.792Z,36.24
2022-09-23T15:06:53.581Z,36.57
2022-09-23T15:09:36.000Z,36.98
2022-09-23T15:12:14.125Z,36.39
2022-09-23T15:14:46.560Z,37.24
2022-09-23T15:17:35.168Z,36.98
2022-09-23T15:20:07.078Z,35.97
2022-09-23T15:22:52.008Z,35.89
2022-09-23T15:25:25.679Z,36.07
2022-09-23T15:28:06.620Z,36.93
2022-09-23T15:30:39.028Z,37.82
2022-09-23T15:33:06.675Z,37.98
2022-09-23T15:35:34.585Z,36.76
2022-09-23T15:38:04.503Z,37.42
2022-09-23T15:40:37.257Z,37.89
2022-09-23T15:43:21.748Z,37.61
2022-09-23T15:46:05.361Z,37.40
2022-09-23T15:48:44.171Z,36.80
2022-09-23T15:51:15.087Z,37.28
2022-09-23T15:53:42.513Z,36.84
2022-09-23T15:56:10.246Z,37.61
2022-09-23T15:58:37.518Z,37.53
2022-09-23T16:01:06.834Z,36.93
2022-09-23T16:03:35.708Z,37.67
2022-09-23T16:06:04.700Z,38.02
2022-09-23T16:08:33.729Z,38.19
2022-09-23T16:11:01.707Z,38.52
2022-09-23T16:13:29.600Z,37.50
2022-09-23T16:15:57.622Z,36.68
2022-09-23T16:18:24.991Z,37.56
2022-09-23T16:20:54.157Z,39.33
2022-09-23T16:23:43.818Z,37.84
2022-09-23T16:26:17.179Z,38.22
2022-09-23T16:28:46.163Z,40.09
2022-09-23T16:31:17.837Z,41.21
2022-09-23T16:33:47.608Z,43.22
2022-09-23T16:36:27.816Z,43.88
2022-09-23T16:38:55.882Z,43.16
2022-09-23T16:41:24.343Z,41.52
2022-09-23T16:43:53.403Z,41.58
2022-09-23T16:46:22.518Z,43.13
2022-09-23T16:48:52.936Z,46.17
2022-09-23T16:51:23.956Z,47.89
2022-09-23T16:53:52.844Z,49.33
2022-09-23T16:56:27.954Z,48.27
2022-09-23T16:58:56.626Z,49.56
2022-09-23T17:01:45.142Z,49.33
2022-09-23T17:04:13.248Z,50.42
2022-09-23T17:06:51.015Z,50.47
2022-09-23T17:09:20.585Z,51.98
2022-09-23T17:11:56.280Z,51.74
2022-09-23T17:14:23.570Z,52.01
2022-09-23T17:16:51.194Z,51.92
2022-09-23T17:19:18.652Z,51.57
2022-09-23T17:21:46.450Z,51.36
2022-09-23T17:24:15.109Z,51.51
2022-09-23T17:26:50.657Z,52.10
2022-09-23T17:29:20.204Z,52.94
2022-09-23T17:31:48.110Z,53.38
2022-09-23T17:34:16.305Z,53.78
2022-09-23T17:36:43.499Z,53.83
2022-09-23T17:39:11.053Z,53.39
2022-09-23T17:41:39.241Z,53.75
2022-09-23T17:44:08.097Z,53.34
2022-09-23T17:46:35.523Z,53.28
2022-09-23T17:49:04.306Z,51.71
2022-09-23T17:51:34.456Z,52.62
2022-09-23T17:54:01.773Z,52.23
2022-09-23T17:56:33.802Z,51.83
2022-09-23T17:59:02.276Z,52.18
2022-09-23T18:01:29.773Z,52.92
2022-09-23T18:04:02.149Z,52.77
2022-09-23T18:06:31.706Z,51.95
2022-09-23T18:09:06.672Z,52.31
2022-09-23T18:11:40.591Z,52.55
2022-09-23T18:14:19.658Z,52.80
2022-09-23T18:16:50.988Z,52.51
2022-09-23T18:19:22.572Z,52.94
2022-09-23T18:21:54.451Z,52.90
2022-09-23T18:24:38.706Z,53.25
2022-09-23T18:27:06.837Z,53.53
2022-09-23T18:29:35.335Z,53.56
2022-09-23T18:32:03.861Z,53.98
2022-09-23T18:34:31.182Z,54.66
2022-09-23T18:36:59.094Z,54.47
2022-09-23T18:39:26.612Z,55.14
2022-09-23T18:41:54.797Z,54.86
2022-09-23T18:44:23.270Z,55.14
2022-09-23T18:46:50.909Z,55.34
2022-09-23T18:49:36.593Z,55.93
2022-09-23T18:52:03.953Z,55.56
2022-09-23T18:54:31.450Z,55.74
2022-09-23T18:57:00.067Z,55.67
2022-09-23T18:59:29.608Z,55.24
2022-09-23T19:01:57.548Z,55.54
2022-09-23T19:04:26.700Z,55.95
2022-09-23T19:06:56.415Z,56.22
2022-09-23T19:09:24.349Z,55.81
2022-09-23T19:11:52.597Z,55.73
2022-09-23T19:14:20.133Z,56.44
2022-09-23T19:16:49.205Z,56.42
2022-09-23T19:19:17.756Z,56.10
2022-09-23T19:21:45.154Z,56.15
2022-09-23T19:24:15.880Z,55.88
2022-09-23T19:26:47.191Z,56.20
2022-09-23T19:29:16.998Z,56.36
2022-09-23T19:31:44.548Z,56.31
2022-09-23T19:34:19.961Z,56.34
2022-09-23T19:36:47.862Z,56.38
2022-09-23T19:39:22.827Z,55.98
2022-09-23T19:41:52.740Z,55.93
2022-09-23T19:44:20.374Z,55.80
2022-09-23T19:46:55.100Z,55.89
2022-09-23T19:49:24.678Z,56.28
2022-09-23T19:51:55.768Z,56.35
2022-09-23T19:54:26.438Z,56.48
2022-09-23T19:56:54.232Z,56.26
2022-09-23T19:59:21.646Z,56.69
2022-09-23T20:01:49.343Z,56.66
2022-09-23T20:04:17.411Z,56.64
2022-09-23T20:06:46.726Z,56.50
2022-09-23T20:09:15.840Z,56.60
2022-09-23T20:11:44.134Z,56.64
2022-09-23T20:14:11.933Z,56.61
2022-09-23T20:16:40.331Z,56.73
2022-09-23T20:19:09.769Z,56.34
2022-09-23T20:21:37.320Z,56.45
2022-09-23T20:24:06.439Z,56.46
2022-09-23T20:26:54.170Z,56.86
2022-09-23T20:29:21.550Z,56.45
2022-09-23T20:31:48.904Z,56.83
2022-09-23T20:34:16.520Z,56.87
2022-09-23T20:36:44.209Z,56.88
2022-09-23T20:39:11.558Z,56.57
2022-09-23T20:42:02.692Z,56.84
2022-09-23T20:44:29.996Z,56.96
2022-09-23T20:46:57.729Z,56.97
2022-09-23T20:49:25.221Z,57.01
2022-09-23T20:51:52.372Z,55.58
2022-09-23T20:54:19.912Z,55.55
2022-09-23T20:56:47.775Z,55.98
2022-09-23T20:59:17.477Z,56.65
2022-09-23T21:01:45.241Z,55.29
2022-09-23T21:04:13.177Z,55.72
2022-09-23T21:06:40.460Z,56.62
2022-09-23T21:09:07.756Z,55.25
2022-09-23T21:11:35.569Z,54.90
2022-09-23T21:14:02.965Z,55.95
2022-09-23T21:16:30.689Z,56.41
2022-09-23T21:18:58.829Z,56.27
2022-09-23T21:21:26.538Z,56.99
2022-09-23T21:23:54.265Z,58.02
2022-09-23T21:26:23.967Z,57.90
2022-09-23T21:28:57.646Z,57.99
2022-09-23T21:31:34.402Z,59.02
2022-09-23T21:34:04.139Z,58.05
2022-09-23T21:36:33.385Z,58.61
2022-09-23T21:39:04.258Z,58.04
2022-09-23T21:41:31.667Z,58.42
2022-09-23T21:44:00.353Z,58.51
2022-09-23T21:46:28.943Z,57.79
2022-09-23T21:48:57.471Z,57.69
2022-09-23T21:51:27.039Z,57.88
2022-09-23T21:53:57.059Z,58.69
2022-09-23T21:56:26.468Z,58.50
2022-09-23T21:58:55.384Z,58.07
2022-09-23T22:01:28.063Z,57.38
2022-09-23T22:04:07.991Z,57.43
2022-09-23T22:06:38.087Z,57.46
2022-09-23T22:09:09.202Z,57.37
2022-09-23T22:11:56.550Z,57.25
2022-09-23T22:14:25.965Z,55.76
2022-09-23T22:16:57.354Z,56.93
2022-09-23T22:19:34.714Z,57.53
2022-09-23T22:22:07.012Z,57.34
2022-09-23T22:24:34.423Z,57.23
2022-09-23T22:27:01.744Z,57.67
2022-09-23T22:29:47.711Z,57.90
2022-09-23T22:32:33.694Z,57.29
2022-09-23T22:35:00.976Z,57.66
2022-09-23T22:37:30.494Z,57.67
2022-09-23T22:39:57.807Z,57.61
2022-09-23T22:42:25.233Z,58.27
2022-09-23T22:44:52.584Z,57.65
2022-09-23T22:47:20.288Z,57.15
2022-09-23T22:49:48.637Z,57.65
2022-09-23T22:52:21.069Z,57.62
2022-09-23T22:54:48.444Z,57.29
2022-09-23T22:57:15.722Z,57.74
2022-09-23T22:59:47.990Z,58.11
2022-09-23T23:02:16.979Z,57.66
2022-09-23T23:04:46.652Z,57.95
2022-09-23T23:07:15.422Z,58.49
2022-09-23T23:09:42.585Z,58.07
2022-09-23T23:12:09.886Z,57.87
2022-09-23T23:14:38.027Z,58.12
2022-09-23T23:17:08.395Z,58.14
2022-09-23T23:19:37.099Z,58.30
2022-09-23T23:22:05.296Z,57.87
2022-09-23T23:24:32.601Z,57.56
2022-09-23T23:26:59.815Z,57.74
2022-09-23T23:29:27.730Z,57.82
2022-09-23T23:31:55.101Z,58.22
2022-09-23T23:34:22.973Z,56.96
2022-09-23T23:36:55.065Z,57.60
2022-09-23T23:39:24.766Z,56.77
2022-09-23T23:41:54.715Z,56.40
2022-09-23T23:44:23.801Z,57.61
2022-09-23T23:46:51.981Z,57.37
2022-09-23T23:49:19.558Z,56.97
2022-09-23T23:51:47.767Z,57.29
2022-09-23T23:54:15.336Z,57.91
2022-09-23T23:56:43.282Z,58.72
2022-09-23T23:59:10.545Z,57.71
